sensor_id;sensor_type;location;lat;lon;timestamp;P1;durP1;ratioP1;P2;durP2;ratioP2
32505;SDS011;18955;51.224;8.482;2024-03-02T00:01:15;6.93;;;4.65;;
32505;SDS011;18955;51.224;8.482;2024-03-02T00:03:42;6.40;;;4.57;;
32505;SDS011;18955;51.224;8.482;2024-03-02T00:06:09;6.80;;;4.38;;
32505;SDS011;18955;51.224;8.482;2024-03-02T00:11:01;6.80;;;4.93;;
32505;SDS011;18955;51.224;8.482;2024-03-02T00:15:56;7.28;;;5.20;;
32505;SDS011;18955;51.224;8.482;2024-03-02T00:18:25;6.75;;;5.28;;
32505;SDS011;18955;51.224;8.482;2024-03-02T00:20:54;7.38;;;5.45;;
32505;SDS011;18955;51.224;8.482;2024-03-02T00:23:22;7.15;;;5.25;;
32505;SDS011;18955;51.224;8.482;2024-03-02T00:25:50;6.63;;;5.47;;
32505;SDS011;18955;51.224;8.482;2024-03-02T00:28:27;6.57;;;5.40;;
32505;SDS011;18955;51.224;8.482;2024-03-02T00:31:06;8.13;;;5.90;;
32505;SDS011;18955;51.224;8.482;2024-03-02T00:33:34;13.27;;;5.63;;
32505;SDS011;18955;51.224;8.482;2024-03-02T00:36:04;7.03;;;5.80;;
32505;SDS011;18955;51.224;8.482;2024-03-02T00:38:32;8.13;;;5.88;;
32505;SDS011;18955;51.224;8.482;2024-03-02T00:41:00;9.23;;;5.50;;
32505;SDS011;18955;51.224;8.482;2024-03-02T00:43:41;7.63;;;5.35;;
32505;SDS011;18955;51.224;8.482;2024-03-02T00:46:23;6.72;;;4.90;;
32505;SDS011;18955;51.224;8.482;2024-03-02T00:48:59;6.68;;;5.25;;
32505;SDS011;18955;51.224;8.482;2024-03-02T00:51:27;8.00;;;5.28;;
32505;SDS011;18955;51.224;8.482;2024-03-02T00:53:57;7.30;;;5.30;;
32505;SDS011;18955;51.224;8.482;2024-03-02T00:56:29;8.30;;;5.28;;
32505;SDS011;18955;51.224;8.482;2024-03-02T00:58:56;7.55;;;5.60;;
32505;SDS011;18955;51.224;8.482;2024-03-02T01:01:23;7.95;;;6.20;;
32505;SDS011;18955;51.224;8.482;2024-03-02T01:03:51;8.57;;;5.57;;
32505;SDS011;18955;51.224;8.482;2024-03-02T01:06:18;9.23;;;5.97;;
32505;SDS011;18955;51.224;8.482;2024-03-02T01:08:44;9.32;;;5.95;;
32505;SDS011;18955;51.224;8.482;2024-03-02T01:11:12;9.85;;;6.32;;
32505;SDS011;18955;51.224;8.482;2024-03-02T01:13:39;9.38;;;5.82;;
32505;SDS011;18955;51.224;8.482;2024-03-02T01:16:05;6.15;;;4.70;;
32505;SDS011;18955;51.224;8.482;2024-03-02T01:18:31;7.93;;;5.70;;
32505;SDS011;18955;51.224;8.482;2024-03-02T01:20:57;8.60;;;5.40;;
32505;SDS011;18955;51.224;8.482;2024-03-02T01:23:24;7.05;;;5.55;;
32505;SDS011;18955;51.224;8.482;2024-03-02T01:28:17;9.23;;;6.25;;
32505;SDS011;18955;51.224;8.482;2024-03-02T01:30:44;10.20;;;6.75;;
32505;SDS011;18955;51.224;8.482;2024-03-02T01:33:10;6.60;;;4.45;;
32505;SDS011;18955;51.224;8.482;2024-03-02T01:35:37;9.68;;;6.18;;
32505;SDS011;18955;51.224;8.482;2024-03-02T01:38:03;8.70;;;6.40;;
32505;SDS011;18955;51.224;8.482;2024-03-02T01:40:36;10.30;;;6.72;;
32505;SDS011;18955;51.224;8.482;2024-03-02T01:43:04;7.60;;;6.10;;
32505;SDS011;18955;51.224;8.482;2024-03-02T01:45:30;9.77;;;6.05;;
32505;SDS011;18955;51.224;8.482;2024-03-02T01:47:57;10.10;;;7.25;;
32505;SDS011;18955;51.224;8.482;2024-03-02T01:50:24;10.55;;;6.70;;
32505;SDS011;18955;51.224;8.482;2024-03-02T01:52:55;12.10;;;6.97;;
32505;SDS011;18955;51.224;8.482;2024-03-02T01:55:22;8.57;;;6.13;;
32505;SDS011;18955;51.224;8.482;2024-03-02T01:57:49;9.25;;;6.50;;
32505;SDS011;18955;51.224;8.482;2024-03-02T02:00:16;10.65;;;6.93;;
32505;SDS011;18955;51.224;8.482;2024-03-02T02:02:47;10.82;;;6.55;;
32505;SDS011;18955;51.224;8.482;2024-03-02T02:05:14;10.82;;;6.82;;
32505;SDS011;18955;51.224;8.482;2024-03-02T02:07:41;9.88;;;6.03;;
32505;SDS011;18955;51.224;8.482;2024-03-02T02:10:08;12.82;;;6.78;;
32505;SDS011;18955;51.224;8.482;2024-03-02T02:12:35;10.18;;;6.97;;
32505;SDS011;18955;51.224;8.482;2024-03-02T02:17:28;10.10;;;6.53;;
32505;SDS011;18955;51.224;8.482;2024-03-02T02:19:54;11.55;;;6.35;;
32505;SDS011;18955;51.224;8.482;2024-03-02T02:22:21;9.63;;;6.93;;
32505;SDS011;18955;51.224;8.482;2024-03-02T02:24:47;10.60;;;7.18;;
32505;SDS011;18955;51.224;8.482;2024-03-02T02:27:13;9.77;;;7.25;;
32505;SDS011;18955;51.224;8.482;2024-03-02T02:29:41;11.07;;;6.63;;
32505;SDS011;18955;51.224;8.482;2024-03-02T02:32:07;9.90;;;6.18;;
32505;SDS011;18955;51.224;8.482;2024-03-02T02:34:33;9.13;;;6.57;;
32505;SDS011;18955;51.224;8.482;2024-03-02T02:37:00;10.30;;;6.72;;
32505;SDS011;18955;51.224;8.482;2024-03-02T02:39:26;10.98;;;7.03;;
32505;SDS011;18955;51.224;8.482;2024-03-02T02:41:52;8.20;;;5.88;;
32505;SDS011;18955;51.224;8.482;2024-03-02T02:44:19;9.32;;;5.80;;
32505;SDS011;18955;51.224;8.482;2024-03-02T02:46:45;8.93;;;5.85;;
32505;SDS011;18955;51.224;8.482;2024-03-02T02:49:11;8.73;;;6.30;;
32505;SDS011;18955;51.224;8.482;2024-03-02T02:51:37;8.27;;;5.68;;
32505;SDS011;18955;51.224;8.482;2024-03-02T02:54:03;7.95;;;5.30;;
32505;SDS011;18955;51.224;8.482;2024-03-02T02:56:30;6.70;;;4.20;;
32505;SDS011;18955;51.224;8.482;2024-03-02T02:58:56;8.55;;;5.43;;
32505;SDS011;18955;51.224;8.482;2024-03-02T03:01:22;7.22;;;5.13;;
32505;SDS011;18955;51.224;8.482;2024-03-02T03:03:48;7.82;;;5.38;;
32505;SDS011;18955;51.224;8.482;2024-03-02T03:06:14;6.70;;;4.68;;
32505;SDS011;18955;51.224;8.482;2024-03-02T03:08:41;8.25;;;5.75;;
32505;SDS011;18955;51.224;8.482;2024-03-02T03:11:07;5.97;;;4.63;;
32505;SDS011;18955;51.224;8.482;2024-03-02T03:13:33;6.53;;;4.35;;
32505;SDS011;18955;51.224;8.482;2024-03-02T03:16:00;8.63;;;4.47;;
32505;SDS011;18955;51.224;8.482;2024-03-02T03:18:26;12.15;;;5.18;;
32505;SDS011;18955;51.224;8.482;2024-03-02T03:20:52;5.25;;;3.35;;
32505;SDS011;18955;51.224;8.482;2024-03-02T03:23:18;8.55;;;5.03;;
32505;SDS011;18955;51.224;8.482;2024-03-02T03:25:45;5.20;;;3.53;;
32505;SDS011;18955;51.224;8.482;2024-03-02T03:28:11;5.30;;;3.17;;
32505;SDS011;18955;51.224;8.482;2024-03-02T03:30:37;5.45;;;3.97;;
32505;SDS011;18955;51.224;8.482;2024-03-02T03:33:04;4.57;;;3.50;;
32505;SDS011;18955;51.224;8.482;2024-03-02T03:35:34;5.47;;;3.50;;
32505;SDS011;18955;51.224;8.482;2024-03-02T03:38:02;4.93;;;3.63;;
32505;SDS011;18955;51.224;8.482;2024-03-02T03:40:28;5.28;;;3.15;;
32505;SDS011;18955;51.224;8.482;2024-03-02T03:42:54;3.05;;;2.05;;
32505;SDS011;18955;51.224;8.482;2024-03-02T03:45:22;5.82;;;3.00;;
32505;SDS011;18955;51.224;8.482;2024-03-02T03:47:48;5.18;;;3.38;;
32505;SDS011;18955;51.224;8.482;2024-03-02T03:50:14;3.55;;;2.17;;
32505;SDS011;18955;51.224;8.482;2024-03-02T03:52:41;5.00;;;2.78;;
32505;SDS011;18955;51.224;8.482;2024-03-02T03:55:07;4.15;;;2.60;;
32505;SDS011;18955;51.224;8.482;2024-03-02T04:00:00;4.93;;;2.70;;
32505;SDS011;18955;51.224;8.482;2024-03-02T04:02:26;4.53;;;3.15;;
32505;SDS011;18955;51.224;8.482;2024-03-02T04:04:52;4.05;;;2.30;;
32505;SDS011;18955;51.224;8.482;2024-03-02T04:07:18;2.35;;;1.95;;
32505;SDS011;18955;51.224;8.482;2024-03-02T04:09:45;2.70;;;2.10;;
32505;SDS011;18955;51.224;8.482;2024-03-02T04:12:11;5.20;;;3.05;;
32505;SDS011;18955;51.224;8.482;2024-03-02T04:14:38;4.60;;;2.70;;
32505;SDS011;18955;51.224;8.482;2024-03-02T04:17:04;2.83;;;1.85;;
32505;SDS011;18955;51.224;8.482;2024-03-02T04:19:31;2.80;;;2.08;;
32505;SDS011;18955;51.224;8.482;2024-03-02T04:21:57;5.13;;;3.05;;
32505;SDS011;18955;51.224;8.482;2024-03-02T04:24:23;8.45;;;3.15;;
32505;SDS011;18955;51.224;8.482;2024-03-02T04:26:50;5.90;;;2.72;;
32505;SDS011;18955;51.224;8.482;2024-03-02T04:29:16;2.97;;;2.13;;
32505;SDS011;18955;51.224;8.482;2024-03-02T04:31:42;8.13;;;3.22;;
32505;SDS011;18955;51.224;8.482;2024-03-02T04:34:08;3.70;;;2.25;;
32505;SDS011;18955;51.224;8.482;2024-03-02T04:36:34;3.83;;;2.58;;
32505;SDS011;18955;51.224;8.482;2024-03-02T04:39:00;3.47;;;2.63;;
32505;SDS011;18955;51.224;8.482;2024-03-02T04:41:27;4.60;;;2.80;;
32505;SDS011;18955;51.224;8.482;2024-03-02T04:43:53;5.18;;;3.60;;
32505;SDS011;18955;51.224;8.482;2024-03-02T04:46:19;5.25;;;3.13;;
32505;SDS011;18955;51.224;8.482;2024-03-02T04:48:45;6.78;;;3.55;;
32505;SDS011;18955;51.224;8.482;2024-03-02T04:51:12;7.00;;;3.38;;
32505;SDS011;18955;51.224;8.482;2024-03-02T04:53:39;5.70;;;3.42;;
32505;SDS011;18955;51.224;8.482;2024-03-02T04:56:05;4.57;;;3.13;;
32505;SDS011;18955;51.224;8.482;2024-03-02T04:58:50;5.78;;;3.10;;
32505;SDS011;18955;51.224;8.482;2024-03-02T05:01:16;3.63;;;2.42;;
32505;SDS011;18955;51.224;8.482;2024-03-02T05:03:43;5.20;;;2.90;;
32505;SDS011;18955;51.224;8.482;2024-03-02T05:06:09;5.90;;;3.83;;
32505;SDS011;18955;51.224;8.482;2024-03-02T05:08:35;7.68;;;4.10;;
32505;SDS011;18955;51.224;8.482;2024-03-02T05:11:01;5.35;;;3.83;;
32505;SDS011;18955;51.224;8.482;2024-03-02T05:13:46;4.60;;;3.05;;
32505;SDS011;18955;51.224;8.482;2024-03-02T05:16:12;4.15;;;2.75;;
32505;SDS011;18955;51.224;8.482;2024-03-02T05:18:39;4.80;;;3.58;;
32505;SDS011;18955;51.224;8.482;2024-03-02T05:21:05;6.82;;;4.07;;
32505;SDS011;18955;51.224;8.482;2024-03-02T05:23:31;8.27;;;3.75;;
32505;SDS011;18955;51.224;8.482;2024-03-02T05:25:57;5.43;;;3.90;;
32505;SDS011;18955;51.224;8.482;2024-03-02T05:28:24;7.13;;;4.32;;
32505;SDS011;18955;51.224;8.482;2024-03-02T05:30:50;7.07;;;4.20;;
32505;SDS011;18955;51.224;8.482;2024-03-02T05:33:16;5.15;;;3.40;;
32505;SDS011;18955;51.224;8.482;2024-03-02T05:35:43;14.43;;;6.28;;
32505;SDS011;18955;51.224;8.482;2024-03-02T05:38:09;8.52;;;5.10;;
32505;SDS011;18955;51.224;8.482;2024-03-02T05:40:36;4.43;;;3.20;;
32505;SDS011;18955;51.224;8.482;2024-03-02T05:43:02;9.18;;;5.00;;
32505;SDS011;18955;51.224;8.482;2024-03-02T05:45:28;7.63;;;4.20;;
32505;SDS011;18955;51.224;8.482;2024-03-02T05:47:55;7.28;;;5.40;;
32505;SDS011;18955;51.224;8.482;2024-03-02T05:50:21;4.32;;;3.50;;
32505;SDS011;18955;51.224;8.482;2024-03-02T05:52:47;8.90;;;5.50;;
32505;SDS011;18955;51.224;8.482;2024-03-02T05:55:13;6.25;;;4.57;;
32505;SDS011;18955;51.224;8.482;2024-03-02T05:57:40;5.72;;;4.10;;
32505;SDS011;18955;51.224;8.482;2024-03-02T06:00:06;6.53;;;4.93;;
32505;SDS011;18955;51.224;8.482;2024-03-02T06:02:41;8.95;;;6.75;;
32505;SDS011;18955;51.224;8.482;2024-03-02T06:05:07;9.77;;;6.55;;
32505;SDS011;18955;51.224;8.482;2024-03-02T06:10:00;9.88;;;6.43;;
32505;SDS011;18955;51.224;8.482;2024-03-02T06:12:26;15.23;;;8.25;;
32505;SDS011;18955;51.224;8.482;2024-03-02T06:14:52;12.73;;;8.02;;
32505;SDS011;18955;51.224;8.482;2024-03-02T06:17:18;11.88;;;7.60;;
32505;SDS011;18955;51.224;8.482;2024-03-02T06:19:45;11.43;;;8.13;;
32505;SDS011;18955;51.224;8.482;2024-03-02T06:22:12;13.05;;;8.30;;
32505;SDS011;18955;51.224;8.482;2024-03-02T06:24:38;8.75;;;6.35;;
32505;SDS011;18955;51.224;8.482;2024-03-02T06:27:04;7.93;;;5.57;;
32505;SDS011;18955;51.224;8.482;2024-03-02T06:32:00;12.40;;;8.13;;
32505;SDS011;18955;51.224;8.482;2024-03-02T06:34:26;12.05;;;7.28;;
32505;SDS011;18955;51.224;8.482;2024-03-02T06:36:52;11.35;;;6.13;;
32505;SDS011;18955;51.224;8.482;2024-03-02T06:39:19;11.27;;;7.72;;
32505;SDS011;18955;51.224;8.482;2024-03-02T06:41:45;11.05;;;7.85;;
32505;SDS011;18955;51.224;8.482;2024-03-02T06:44:13;11.65;;;7.75;;
32505;SDS011;18955;51.224;8.482;2024-03-02T06:46:39;10.02;;;7.53;;
32505;SDS011;18955;51.224;8.482;2024-03-02T06:49:05;6.88;;;4.57;;
32505;SDS011;18955;51.224;8.482;2024-03-02T06:51:33;14.40;;;7.78;;
32505;SDS011;18955;51.224;8.482;2024-03-02T06:53:59;10.73;;;7.22;;
32505;SDS011;18955;51.224;8.482;2024-03-02T06:56:26;9.98;;;6.68;;
32505;SDS011;18955;51.224;8.482;2024-03-02T06:58:52;7.60;;;5.28;;
32505;SDS011;18955;51.224;8.482;2024-03-02T07:01:18;11.88;;;7.47;;
32505;SDS011;18955;51.224;8.482;2024-03-02T07:03:46;10.45;;;7.22;;
32505;SDS011;18955;51.224;8.482;2024-03-02T07:06:12;10.52;;;7.07;;
32505;SDS011;18955;51.224;8.482;2024-03-02T07:08:38;7.97;;;4.60;;
32505;SDS011;18955;51.224;8.482;2024-03-02T07:11:04;10.82;;;5.22;;
32505;SDS011;18955;51.224;8.482;2024-03-02T07:13:30;7.13;;;4.45;;
32505;SDS011;18955;51.224;8.482;2024-03-02T07:15:57;11.07;;;6.50;;
32505;SDS011;18955;51.224;8.482;2024-03-02T07:18:32;11.77;;;6.78;;
32505;SDS011;18955;51.224;8.482;2024-03-02T07:21:09;11.40;;;5.95;;
32505;SDS011;18955;51.224;8.482;2024-03-02T07:23:36;13.57;;;6.95;;
32505;SDS011;18955;51.224;8.482;2024-03-02T07:26:02;11.07;;;7.78;;
32505;SDS011;18955;51.224;8.482;2024-03-02T07:28:29;13.18;;;7.40;;
32505;SDS011;18955;51.224;8.482;2024-03-02T07:31:01;10.77;;;7.25;;
32505;SDS011;18955;51.224;8.482;2024-03-02T07:33:30;10.98;;;7.15;;
32505;SDS011;18955;51.224;8.482;2024-03-02T07:35:57;16.08;;;8.90;;
32505;SDS011;18955;51.224;8.482;2024-03-02T07:38:25;20.15;;;11.32;;
32505;SDS011;18955;51.224;8.482;2024-03-02T07:40:52;23.50;;;12.57;;
32505;SDS011;18955;51.224;8.482;2024-03-02T07:43:19;13.25;;;8.35;;
32505;SDS011;18955;51.224;8.482;2024-03-02T07:45:45;12.43;;;8.05;;
32505;SDS011;18955;51.224;8.482;2024-03-02T07:48:12;9.07;;;6.07;;
32505;SDS011;18955;51.224;8.482;2024-03-02T07:50:38;9.57;;;5.30;;
32505;SDS011;18955;51.224;8.482;2024-03-02T07:53:05;11.48;;;6.47;;
32505;SDS011;18955;51.224;8.482;2024-03-02T07:55:33;9.10;;;5.32;;
32505;SDS011;18955;51.224;8.482;2024-03-02T07:58:02;9.70;;;5.85;;
32505;SDS011;18955;51.224;8.482;2024-03-02T08:00:28;7.68;;;4.78;;
32505;SDS011;18955;51.224;8.482;2024-03-02T08:02:55;8.70;;;5.82;;
32505;SDS011;18955;51.224;8.482;2024-03-02T08:07:48;13.18;;;6.55;;
32505;SDS011;18955;51.224;8.482;2024-03-02T08:10:18;11.55;;;6.80;;
32505;SDS011;18955;51.224;8.482;2024-03-02T08:12:45;8.85;;;5.82;;
32505;SDS011;18955;51.224;8.482;2024-03-02T08:15:11;9.63;;;6.35;;
32505;SDS011;18955;51.224;8.482;2024-03-02T08:17:40;9.85;;;5.88;;
32505;SDS011;18955;51.224;8.482;2024-03-02T08:20:11;10.23;;;4.97;;
32505;SDS011;18955;51.224;8.482;2024-03-02T08:22:37;6.35;;;4.40;;
32505;SDS011;18955;51.224;8.482;2024-03-02T08:25:04;7.28;;;3.58;;
32505;SDS011;18955;51.224;8.482;2024-03-02T08:27:31;11.35;;;3.53;;
32505;SDS011;18955;51.224;8.482;2024-03-02T08:29:58;6.43;;;4.53;;
32505;SDS011;18955;51.224;8.482;2024-03-02T08:32:24;8.43;;;4.72;;
32505;SDS011;18955;51.224;8.482;2024-03-02T08:34:51;6.20;;;4.28;;
32505;SDS011;18955;51.224;8.482;2024-03-02T08:37:17;7.93;;;4.45;;
32505;SDS011;18955;51.224;8.482;2024-03-02T08:39:44;4.35;;;2.80;;
32505;SDS011;18955;51.224;8.482;2024-03-02T08:42:11;6.13;;;3.72;;
32505;SDS011;18955;51.224;8.482;2024-03-02T08:44:37;8.63;;;4.78;;
32505;SDS011;18955;51.224;8.482;2024-03-02T08:47:03;7.88;;;4.32;;
32505;SDS011;18955;51.224;8.482;2024-03-02T08:49:29;8.60;;;3.42;;
32505;SDS011;18955;51.224;8.482;2024-03-02T08:51:56;5.57;;;3.30;;
32505;SDS011;18955;51.224;8.482;2024-03-02T08:54:22;7.72;;;3.38;;
32505;SDS011;18955;51.224;8.482;2024-03-02T08:56:48;7.93;;;4.25;;
32505;SDS011;18955;51.224;8.482;2024-03-02T08:59:18;9.55;;;4.20;;
32505;SDS011;18955;51.224;8.482;2024-03-02T09:01:44;6.60;;;3.63;;
32505;SDS011;18955;51.224;8.482;2024-03-02T09:04:11;7.25;;;3.97;;
32505;SDS011;18955;51.224;8.482;2024-03-02T09:06:38;7.60;;;3.78;;
32505;SDS011;18955;51.224;8.482;2024-03-02T09:09:04;9.27;;;4.05;;
32505;SDS011;18955;51.224;8.482;2024-03-02T09:11:30;5.00;;;2.65;;
32505;SDS011;18955;51.224;8.482;2024-03-02T09:13:58;7.97;;;4.15;;
32505;SDS011;18955;51.224;8.482;2024-03-02T09:16:24;7.35;;;3.97;;
32505;SDS011;18955;51.224;8.482;2024-03-02T09:18:56;9.63;;;4.30;;
32505;SDS011;18955;51.224;8.482;2024-03-02T09:21:24;4.47;;;2.85;;
32505;SDS011;18955;51.224;8.482;2024-03-02T09:23:51;6.40;;;4.15;;
32505;SDS011;18955;51.224;8.482;2024-03-02T09:26:17;4.95;;;2.95;;
32505;SDS011;18955;51.224;8.482;2024-03-02T09:28:45;11.80;;;4.03;;
32505;SDS011;18955;51.224;8.482;2024-03-02T09:31:11;8.48;;;3.60;;
32505;SDS011;18955;51.224;8.482;2024-03-02T09:33:37;6.15;;;3.85;;
32505;SDS011;18955;51.224;8.482;2024-03-02T09:36:04;11.88;;;4.00;;
32505;SDS011;18955;51.224;8.482;2024-03-02T09:38:34;8.73;;;4.07;;
32505;SDS011;18955;51.224;8.482;2024-03-02T09:41:01;9.68;;;3.70;;
32505;SDS011;18955;51.224;8.482;2024-03-02T09:43:28;7.53;;;4.40;;
32505;SDS011;18955;51.224;8.482;2024-03-02T09:45:54;7.13;;;3.75;;
32505;SDS011;18955;51.224;8.482;2024-03-02T09:48:21;6.00;;;2.85;;
32505;SDS011;18955;51.224;8.482;2024-03-02T09:50:47;6.72;;;3.63;;
32505;SDS011;18955;51.224;8.482;2024-03-02T09:53:13;7.30;;;4.45;;
32505;SDS011;18955;51.224;8.482;2024-03-02T09:55:41;6.28;;;4.10;;
32505;SDS011;18955;51.224;8.482;2024-03-02T09:58:12;7.68;;;4.13;;
32505;SDS011;18955;51.224;8.482;2024-03-02T10:00:38;7.45;;;4.05;;
32505;SDS011;18955;51.224;8.482;2024-03-02T10:03:04;5.88;;;3.65;;
32505;SDS011;18955;51.224;8.482;2024-03-02T10:05:31;5.07;;;2.55;;
32505;SDS011;18955;51.224;8.482;2024-03-02T10:08:00;7.63;;;4.85;;
32505;SDS011;18955;51.224;8.482;2024-03-02T10:11:01;8.52;;;4.05;;
32505;SDS011;18955;51.224;8.482;2024-03-02T10:13:21;6.20;;;3.80;;
32505;SDS011;18955;51.224;8.482;2024-03-02T10:15:50;7.25;;;3.70;;
32505;SDS011;18955;51.224;8.482;2024-03-02T10:18:18;3.13;;;2.08;;
32505;SDS011;18955;51.224;8.482;2024-03-02T10:20:53;9.80;;;5.18;;
32505;SDS011;18955;51.224;8.482;2024-03-02T10:23:20;7.85;;;4.55;;
32505;SDS011;18955;51.224;8.482;2024-03-02T10:25:46;9.38;;;5.18;;
32505;SDS011;18955;51.224;8.482;2024-03-02T10:28:13;6.93;;;4.68;;
32505;SDS011;18955;51.224;8.482;2024-03-02T10:30:39;7.55;;;3.85;;
32505;SDS011;18955;51.224;8.482;2024-03-02T10:33:05;4.90;;;3.45;;
32505;SDS011;18955;51.224;8.482;2024-03-02T10:35:32;6.07;;;4.20;;
32505;SDS011;18955;51.224;8.482;2024-03-02T10:38:03;6.43;;;4.40;;
32505;SDS011;18955;51.224;8.482;2024-03-02T10:40:31;8.55;;;4.72;;
32505;SDS011;18955;51.224;8.482;2024-03-02T10:45:24;8.55;;;4.80;;
32505;SDS011;18955;51.224;8.482;2024-03-02T10:47:51;8.40;;;4.43;;
32505;SDS011;18955;51.224;8.482;2024-03-02T10:50:17;8.02;;;4.28;;
32505;SDS011;18955;51.224;8.482;2024-03-02T10:52:44;11.38;;;4.68;;
32505;SDS011;18955;51.224;8.482;2024-03-02T10:55:11;7.10;;;4.45;;
32505;SDS011;18955;51.224;8.482;2024-03-02T11:00:12;7.32;;;4.38;;
32505;SDS011;18955;51.224;8.482;2024-03-02T11:02:51;7.57;;;4.35;;
32505;SDS011;18955;51.224;8.482;2024-03-02T11:05:43;10.75;;;5.10;;
32505;SDS011;18955;51.224;8.482;2024-03-02T11:08:14;6.80;;;4.55;;
32505;SDS011;18955;51.224;8.482;2024-03-02T11:10:50;10.20;;;5.60;;
32505;SDS011;18955;51.224;8.482;2024-03-02T11:13:18;7.32;;;4.53;;
32505;SDS011;18955;51.224;8.482;2024-03-02T11:16:09;6.78;;;3.92;;
32505;SDS011;18955;51.224;8.482;2024-03-02T11:18:58;4.40;;;2.97;;
32505;SDS011;18955;51.224;8.482;2024-03-02T11:21:25;4.47;;;3.47;;
32505;SDS011;18955;51.224;8.482;2024-03-02T11:23:52;7.25;;;3.53;;
32505;SDS011;18955;51.224;8.482;2024-03-02T11:26:19;7.47;;;3.70;;
32505;SDS011;18955;51.224;8.482;2024-03-02T11:28:46;6.60;;;3.13;;
32505;SDS011;18955;51.224;8.482;2024-03-02T11:31:13;6.15;;;3.40;;
32505;SDS011;18955;51.224;8.482;2024-03-02T11:33:39;6.35;;;3.83;;
32505;SDS011;18955;51.224;8.482;2024-03-02T11:36:06;5.15;;;2.90;;
32505;SDS011;18955;51.224;8.482;2024-03-02T11:38:34;7.55;;;3.30;;
32505;SDS011;18955;51.224;8.482;2024-03-02T11:41:10;6.05;;;3.55;;
32505;SDS011;18955;51.224;8.482;2024-03-02T11:43:37;5.43;;;3.00;;
32505;SDS011;18955;51.224;8.482;2024-03-02T11:46:07;5.93;;;2.97;;
32505;SDS011;18955;51.224;8.482;2024-03-02T11:48:34;7.30;;;3.05;;
32505;SDS011;18955;51.224;8.482;2024-03-02T11:51:02;6.95;;;3.50;;
32505;SDS011;18955;51.224;8.482;2024-03-02T11:53:28;7.50;;;2.80;;
32505;SDS011;18955;51.224;8.482;2024-03-02T11:55:57;4.38;;;2.45;;
32505;SDS011;18955;51.224;8.482;2024-03-02T11:58:24;7.75;;;2.58;;
32505;SDS011;18955;51.224;8.482;2024-03-02T12:00:52;4.78;;;2.45;;
32505;SDS011;18955;51.224;8.482;2024-03-02T12:03:21;5.75;;;2.38;;
32505;SDS011;18955;51.224;8.482;2024-03-02T12:05:49;1.95;;;1.27;;
32505;SDS011;18955;51.224;8.482;2024-03-02T12:08:16;3.10;;;2.05;;
32505;SDS011;18955;51.224;8.482;2024-03-02T12:10:42;2.22;;;1.83;;
32505;SDS011;18955;51.224;8.482;2024-03-02T12:13:09;4.78;;;1.92;;
32505;SDS011;18955;51.224;8.482;2024-03-02T12:15:37;2.70;;;1.70;;
32505;SDS011;18955;51.224;8.482;2024-03-02T12:18:04;2.90;;;1.80;;
32505;SDS011;18955;51.224;8.482;2024-03-02T12:20:32;3.45;;;1.58;;
32505;SDS011;18955;51.224;8.482;2024-03-02T12:22:59;5.10;;;2.20;;
32505;SDS011;18955;51.224;8.482;2024-03-02T12:25:28;4.03;;;2.20;;
32505;SDS011;18955;51.224;8.482;2024-03-02T12:27:58;8.45;;;2.67;;
32505;SDS011;18955;51.224;8.482;2024-03-02T12:30:26;2.10;;;1.67;;
32505;SDS011;18955;51.224;8.482;2024-03-02T12:32:55;3.75;;;2.75;;
32505;SDS011;18955;51.224;8.482;2024-03-02T12:35:21;5.05;;;3.17;;
32505;SDS011;18955;51.224;8.482;2024-03-02T12:37:50;5.88;;;3.38;;
32505;SDS011;18955;51.224;8.482;2024-03-02T12:40:18;7.18;;;3.83;;
32505;SDS011;18955;51.224;8.482;2024-03-02T12:42:46;10.38;;;5.20;;
32505;SDS011;18955;51.224;8.482;2024-03-02T12:45:12;8.43;;;5.65;;
32505;SDS011;18955;51.224;8.482;2024-03-02T12:47:39;6.00;;;4.63;;
32505;SDS011;18955;51.224;8.482;2024-03-02T12:50:07;8.30;;;4.95;;
32505;SDS011;18955;51.224;8.482;2024-03-02T12:52:34;7.38;;;4.75;;
32505;SDS011;18955;51.224;8.482;2024-03-02T12:55:00;8.93;;;4.63;;
32505;SDS011;18955;51.224;8.482;2024-03-02T12:57:29;7.00;;;3.83;;
32505;SDS011;18955;51.224;8.482;2024-03-02T13:00:00;6.65;;;4.78;;
32505;SDS011;18955;51.224;8.482;2024-03-02T13:02:36;11.10;;;4.53;;
32505;SDS011;18955;51.224;8.482;2024-03-02T13:05:05;8.82;;;4.65;;
32505;SDS011;18955;51.224;8.482;2024-03-02T13:07:37;8.00;;;4.50;;
32505;SDS011;18955;51.224;8.482;2024-03-02T13:10:04;9.20;;;4.65;;
32505;SDS011;18955;51.224;8.482;2024-03-02T13:12:31;8.70;;;4.55;;
32505;SDS011;18955;51.224;8.482;2024-03-02T13:14:58;7.63;;;5.38;;
32505;SDS011;18955;51.224;8.482;2024-03-02T13:17:25;6.50;;;3.95;;
32505;SDS011;18955;51.224;8.482;2024-03-02T13:19:55;7.05;;;4.55;;
32505;SDS011;18955;51.224;8.482;2024-03-02T13:22:25;8.07;;;4.88;;
32505;SDS011;18955;51.224;8.482;2024-03-02T13:24:52;8.95;;;5.15;;
32505;SDS011;18955;51.224;8.482;2024-03-02T13:27:21;8.45;;;4.43;;
32505;SDS011;18955;51.224;8.482;2024-03-02T13:29:47;8.13;;;4.38;;
32505;SDS011;18955;51.224;8.482;2024-03-02T13:32:14;7.90;;;4.43;;
32505;SDS011;18955;51.224;8.482;2024-03-02T13:34:41;7.30;;;4.68;;
32505;SDS011;18955;51.224;8.482;2024-03-02T13:39:35;7.15;;;4.55;;
32505;SDS011;18955;51.224;8.482;2024-03-02T13:42:09;10.40;;;4.70;;
32505;SDS011;18955;51.224;8.482;2024-03-02T13:44:37;6.28;;;4.80;;
32505;SDS011;18955;51.224;8.482;2024-03-02T13:47:04;6.22;;;4.38;;
32505;SDS011;18955;51.224;8.482;2024-03-02T13:49:30;8.15;;;5.00;;
32505;SDS011;18955;51.224;8.482;2024-03-02T13:52:05;6.68;;;4.18;;
32505;SDS011;18955;51.224;8.482;2024-03-02T13:54:42;6.57;;;4.20;;
32505;SDS011;18955;51.224;8.482;2024-03-02T13:57:10;7.25;;;4.60;;
32505;SDS011;18955;51.224;8.482;2024-03-02T13:59:37;6.90;;;4.28;;
32505;SDS011;18955;51.224;8.482;2024-03-02T14:02:04;6.25;;;4.30;;
32505;SDS011;18955;51.224;8.482;2024-03-02T14:04:35;5.55;;;4.30;;
32505;SDS011;18955;51.224;8.482;2024-03-02T14:07:01;5.85;;;4.20;;
32505;SDS011;18955;51.224;8.482;2024-03-02T14:09:28;6.18;;;3.95;;
32505;SDS011;18955;51.224;8.482;2024-03-02T14:11:55;5.78;;;3.85;;
32505;SDS011;18955;51.224;8.482;2024-03-02T14:14:22;6.07;;;3.60;;
32505;SDS011;18955;51.224;8.482;2024-03-02T14:16:48;5.53;;;3.22;;
32505;SDS011;18955;51.224;8.482;2024-03-02T14:19:15;4.47;;;3.40;;
32505;SDS011;18955;51.224;8.482;2024-03-02T14:21:41;4.70;;;3.80;;
32505;SDS011;18955;51.224;8.482;2024-03-02T14:24:08;6.95;;;3.00;;
32505;SDS011;18955;51.224;8.482;2024-03-02T14:29:02;6.00;;;3.07;;
32505;SDS011;18955;51.224;8.482;2024-03-02T14:31:29;4.10;;;3.08;;
32505;SDS011;18955;51.224;8.482;2024-03-02T14:33:57;4.40;;;2.65;;
32505;SDS011;18955;51.224;8.482;2024-03-02T14:36:23;6.20;;;3.40;;
32505;SDS011;18955;51.224;8.482;2024-03-02T14:38:49;4.93;;;2.55;;
32505;SDS011;18955;51.224;8.482;2024-03-02T14:41:16;2.72;;;1.80;;
32505;SDS011;18955;51.224;8.482;2024-03-02T14:43:42;8.13;;;2.20;;
32505;SDS011;18955;51.224;8.482;2024-03-02T14:46:09;3.08;;;2.10;;
32505;SDS011;18955;51.224;8.482;2024-03-02T14:48:36;5.10;;;1.85;;
32505;SDS011;18955;51.224;8.482;2024-03-02T14:51:03;3.38;;;2.08;;
32505;SDS011;18955;51.224;8.482;2024-03-02T14:55:55;3.40;;;1.83;;
32505;SDS011;18955;51.224;8.482;2024-03-02T14:58:22;1.88;;;1.25;;
32505;SDS011;18955;51.224;8.482;2024-03-02T15:00:48;2.28;;;2.00;;
32505;SDS011;18955;51.224;8.482;2024-03-02T15:03:14;3.20;;;2.03;;
32505;SDS011;18955;51.224;8.482;2024-03-02T15:05:40;3.20;;;2.00;;
32505;SDS011;18955;51.224;8.482;2024-03-02T15:08:07;3.67;;;1.70;;
32505;SDS011;18955;51.224;8.482;2024-03-02T15:10:33;3.05;;;1.80;;
32505;SDS011;18955;51.224;8.482;2024-03-02T15:12:59;1.55;;;1.20;;
32505;SDS011;18955;51.224;8.482;2024-03-02T15:15:25;2.63;;;1.60;;
32505;SDS011;18955;51.224;8.482;2024-03-02T15:17:52;2.55;;;1.55;;
32505;SDS011;18955;51.224;8.482;2024-03-02T15:20:18;2.28;;;1.73;;